sensor_id;sensor_type;location;lat;lon;timestamp;pressure;altitude;pressure_sealevel;temperature;humidity
66396;BME280;53207;51.378;-1.342;2023-02-15T00:00:17;101215.15;;;20.11;35.93
66396;BME280;53207;51.378;-1.342;2023-02-15T00:02:44;101213.61;;;20.19;36.35
66396;BME280;53207;51.378;-1.342;2023-02-15T00:05:12;101215.50;;;20.21;36.91
66396;BME280;53207;51.378;-1.342;2023-02-15T00:07:39;101211.29;;;19.86;37.42
66396;BME280;53207;51.378;-1.342;2023-02-15T00:10:07;101206.87;;;20.15;37.87
66396;BME280;53207;51.378;-1.342;2023-02-15T00:12:35;101207.98;;;20.13;38.38
66396;BME280;53207;51.378;-1.342;2023-02-15T00:15:02;101204.19;;;20.14;37.61
66396;BME280;53207;51.378;-1.342;2023-02-15T00:17:29;101201.51;;;20.14;37.62
66396;BME280;53207;51.378;-1.342;2023-02-15T00:19:56;101203.41;;;20.11;37.88
66396;BME280;53207;51.378;-1.342;2023-02-15T00:22:25;101203.94;;;20.11;37.39
66396;BME280;53207;51.378;-1.342;2023-02-15T00:24:53;101199.88;;;20.10;37.28
66396;BME280;53207;51.378;-1.342;2023-02-15T00:27:20;101194.36;;;20.01;37.16
66396;BME280;53207;51.378;-1.342;2023-02-15T00:29:48;101194.86;;;20.02;36.95
66396;BME280;53207;51.378;-1.342;2023-02-15T00:32:15;101195.10;;;19.74;36.97
66396;BME280;53207;51.378;-1.342;2023-02-15T00:34:42;101195.82;;;19.96;36.88
66396;BME280;53207;51.378;-1.342;2023-02-15T00:37:09;101191.51;;;19.99;36.71
66396;BME280;53207;51.378;-1.342;2023-02-15T00:39:36;101190.63;;;19.95;36.58
66396;BME280;53207;51.378;-1.342;2023-02-15T00:42:04;101184.83;;;19.91;36.60
66396;BME280;53207;51.378;-1.342;2023-02-15T00:44:31;101180.99;;;19.87;36.54
66396;BME280;53207;51.378;-1.342;2023-02-15T00:46:58;101174.75;;;19.75;36.59
66396;BME280;53207;51.378;-1.342;2023-02-15T00:49:25;101174.41;;;19.71;36.67
66396;BME280;53207;51.378;-1.342;2023-02-15T00:51:52;101171.52;;;19.99;36.41
66396;BME280;53207;51.378;-1.342;2023-02-15T00:54:20;101172.08;;;19.78;36.28
66396;BME280;53207;51.378;-1.342;2023-02-15T00:56:47;101167.01;;;19.99;36.23
66396;BME280;53207;51.378;-1.342;2023-02-15T00:59:15;101163.69;;;19.91;36.30
66396;BME280;53207;51.378;-1.342;2023-02-15T01:01:42;101163.43;;;19.67;36.22
66396;BME280;53207;51.378;-1.342;2023-02-15T01:04:09;101156.32;;;19.85;36.21
66396;BME280;53207;51.378;-1.342;2023-02-15T01:06:37;101151.33;;;19.64;36.16
66396;BME280;53207;51.378;-1.342;2023-02-15T01:09:04;101151.34;;;19.62;36.07
66396;BME280;53207;51.378;-1.342;2023-02-15T01:11:32;101146.87;;;20.06;36.01
66396;BME280;53207;51.378;-1.342;2023-02-15T01:13:59;101141.09;;;19.53;36.09
66396;BME280;53207;51.378;-1.342;2023-02-15T01:16:27;101131.27;;;19.70;36.11
66396;BME280;53207;51.378;-1.342;2023-02-15T01:18:55;101124.54;;;19.72;35.99
66396;BME280;53207;51.378;-1.342;2023-02-15T01:21:24;101121.35;;;19.94;35.96
66396;BME280;53207;51.378;-1.342;2023-02-15T01:23:51;101121.04;;;19.41;35.92
66396;BME280;53207;51.378;-1.342;2023-02-15T01:26:19;101125.57;;;19.68;35.88
66396;BME280;53207;51.378;-1.342;2023-02-15T01:28:46;101126.85;;;19.78;35.98
66396;BME280;53207;51.378;-1.342;2023-02-15T01:31:16;101127.03;;;19.35;35.92
66396;BME280;53207;51.378;-1.342;2023-02-15T01:33:44;101126.44;;;19.74;35.93
66396;BME280;53207;51.378;-1.342;2023-02-15T01:36:12;101128.92;;;19.51;35.88
66396;BME280;53207;51.378;-1.342;2023-02-15T01:38:39;101131.41;;;19.52;35.78
66396;BME280;53207;51.378;-1.342;2023-02-15T01:41:07;101128.13;;;19.45;35.83
66396;BME280;53207;51.378;-1.342;2023-02-15T01:43:40;101129.91;;;19.42;35.90
66396;BME280;53207;51.378;-1.342;2023-02-15T01:46:08;101126.99;;;19.18;35.83
66396;BME280;53207;51.378;-1.342;2023-02-15T01:48:42;101123.66;;;19.39;35.78
66396;BME280;53207;51.378;-1.342;2023-02-15T01:51:11;101122.12;;;19.57;35.82
66396;BME280;53207;51.378;-1.342;2023-02-15T01:53:42;101121.82;;;19.58;35.75
66396;BME280;53207;51.378;-1.342;2023-02-15T01:56:16;101119.69;;;19.38;35.64
66396;BME280;53207;51.378;-1.342;2023-02-15T01:58:44;101123.11;;;19.18;35.61
66396;BME280;53207;51.378;-1.342;2023-02-15T02:01:12;101121.72;;;19.53;35.66
66396;BME280;53207;51.378;-1.342;2023-02-15T02:03:49;101118.80;;;19.47;35.71
66396;BME280;53207;51.378;-1.342;2023-02-15T02:06:21;101117.80;;;19.25;35.66
66396;BME280;53207;51.378;-1.342;2023-02-15T02:08:48;101109.84;;;19.48;35.58
66396;BME280;53207;51.378;-1.342;2023-02-15T02:11:16;101105.22;;;19.45;35.63
66396;BME280;53207;51.378;-1.342;2023-02-15T02:13:44;101098.71;;;19.13;35.66
66396;BME280;53207;51.378;-1.342;2023-02-15T02:16:17;101097.84;;;19.36;35.61
66396;BME280;53207;51.378;-1.342;2023-02-15T02:18:58;101093.49;;;19.37;35.57
66396;BME280;53207;51.378;-1.342;2023-02-15T02:22:04;101088.86;;;19.39;35.47
66396;BME280;53207;51.378;-1.342;2023-02-15T02:24:56;101088.85;;;19.36;35.47
66396;BME280;53207;51.378;-1.342;2023-02-15T02:27:34;101079.71;;;19.16;35.39
66396;BME280;53207;51.378;-1.342;2023-02-15T02:30:32;101078.95;;;19.35;35.40
66396;BME280;53207;51.378;-1.342;2023-02-15T02:33:43;101081.98;;;19.37;35.30
66396;BME280;53207;51.378;-1.342;2023-02-15T02:36:21;101080.02;;;19.36;35.28
66396;BME280;53207;51.378;-1.342;2023-02-15T02:39:03;101079.41;;;19.02;35.38
66396;BME280;53207;51.378;-1.342;2023-02-15T02:41:38;101077.67;;;19.28;35.32
66396;BME280;53207;51.378;-1.342;2023-02-15T02:44:14;101076.37;;;19.20;35.37
66396;BME280;53207;51.378;-1.342;2023-02-15T02:46:51;101068.85;;;19.15;35.44
66396;BME280;53207;51.378;-1.342;2023-02-15T02:49:29;101060.72;;;19.17;35.35
66396;BME280;53207;51.378;-1.342;2023-02-15T02:51:59;101058.33;;;19.17;35.29
66396;BME280;53207;51.378;-1.342;2023-02-15T02:54:28;101057.02;;;19.18;35.26
66396;BME280;53207;51.378;-1.342;2023-02-15T02:56:56;101056.77;;;19.14;35.31
66396;BME280;53207;51.378;-1.342;2023-02-15T02:59:29;101052.62;;;19.06;35.36
66396;BME280;53207;51.378;-1.342;2023-02-15T03:02:02;101053.25;;;19.14;35.20
66396;BME280;53207;51.378;-1.342;2023-02-15T03:04:35;101047.74;;;19.10;35.23
66396;BME280;53207;51.378;-1.342;2023-02-15T03:07:07;101035.61;;;19.11;35.17
66396;BME280;53207;51.378;-1.342;2023-02-15T03:09:37;101028.68;;;18.82;35.23
66396;BME280;53207;51.378;-1.342;2023-02-15T03:12:05;101020.87;;;19.06;35.19
66396;BME280;53207;51.378;-1.342;2023-02-15T03:14:32;101020.81;;;19.08;35.14
66396;BME280;53207;51.378;-1.342;2023-02-15T03:17:01;101018.62;;;19.39;35.04
66396;BME280;53207;51.378;-1.342;2023-02-15T03:19:31;101017.64;;;18.98;35.21
66396;BME280;53207;51.378;-1.342;2023-02-15T03:22:04;101014.78;;;19.00;35.13
66396;BME280;53207;51.378;-1.342;2023-02-15T03:24:35;101012.64;;;18.96;35.16
66396;BME280;53207;51.378;-1.342;2023-02-15T03:27:07;101008.22;;;19.01;35.08
66396;BME280;53207;51.378;-1.342;2023-02-15T03:29:37;101005.30;;;19.01;35.04
66396;BME280;53207;51.378;-1.342;2023-02-15T03:32:08;100998.92;;;18.88;35.18
66396;BME280;53207;51.378;-1.342;2023-02-15T03:34:37;100999.00;;;18.98;35.04
66396;BME280;53207;51.378;-1.342;2023-02-15T03:37:10;100996.95;;;18.91;35.08
66396;BME280;53207;51.378;-1.342;2023-02-15T03:39:44;100994.04;;;18.91;35.08
66396;BME280;53207;51.378;-1.342;2023-02-15T03:42:16;100990.08;;;18.85;35.09
66396;BME280;53207;51.378;-1.342;2023-02-15T03:44:51;100986.89;;;18.66;35.08
66396;BME280;53207;51.378;-1.342;2023-02-15T03:47:24;100983.34;;;18.91;34.99
66396;BME280;53207;51.378;-1.342;2023-02-15T03:49:56;100980.32;;;18.91;34.97
66396;BME280;53207;51.378;-1.342;2023-02-15T03:52:26;100985.62;;;19.14;34.97
66396;BME280;53207;51.378;-1.342;2023-02-15T03:54:55;100987.57;;;19.14;34.96
66396;BME280;53207;51.378;-1.342;2023-02-15T03:57:25;100984.68;;;18.82;34.98
66396;BME280;53207;51.378;-1.342;2023-02-15T03:59:52;100985.22;;;18.87;34.89
66396;BME280;53207;51.378;-1.342;2023-02-15T04:02:21;100981.17;;;18.81;34.93
66396;BME280;53207;51.378;-1.342;2023-02-15T04:04:51;100978.52;;;19.04;34.94
66396;BME280;53207;51.378;-1.342;2023-02-15T04:07:18;100978.07;;;19.01;34.95
66396;BME280;53207;51.378;-1.342;2023-02-15T04:09:46;100973.81;;;18.84;35.13
66396;BME280;53207;51.378;-1.342;2023-02-15T04:12:13;100971.00;;;18.71;34.96
66396;BME280;53207;51.378;-1.342;2023-02-15T04:14:40;100962.50;;;18.71;34.93
66396;BME280;53207;51.378;-1.342;2023-02-15T04:17:08;100965.01;;;18.74;34.86
66396;BME280;53207;51.378;-1.342;2023-02-15T04:19:35;100966.28;;;18.75;34.83
66396;BME280;53207;51.378;-1.342;2023-02-15T04:22:03;100961.49;;;18.67;34.90
66396;BME280;53207;51.378;-1.342;2023-02-15T04:24:30;100962.78;;;18.97;34.82
66396;BME280;53207;51.378;-1.342;2023-02-15T04:26:57;100961.60;;;18.68;34.85
66396;BME280;53207;51.378;-1.342;2023-02-15T04:29:26;100966.74;;;18.87;34.92
66396;BME280;53207;51.378;-1.342;2023-02-15T04:31:56;100962.12;;;18.82;34.95
66396;BME280;53207;51.378;-1.342;2023-02-15T04:34:23;100963.40;;;18.62;34.83
66396;BME280;53207;51.378;-1.342;2023-02-15T04:36:51;100962.32;;;18.88;34.81
66396;BME280;53207;51.378;-1.342;2023-02-15T04:39:19;100966.17;;;18.68;34.71
66396;BME280;53207;51.378;-1.342;2023-02-15T04:41:46;100962.24;;;18.95;34.68
66396;BME280;53207;51.378;-1.342;2023-02-15T04:44:13;100960.66;;;18.57;34.78
66396;BME280;53207;51.378;-1.342;2023-02-15T04:46:40;100959.55;;;18.85;34.76
66396;BME280;53207;51.378;-1.342;2023-02-15T04:49:08;100952.96;;;18.57;34.75
66396;BME280;53207;51.378;-1.342;2023-02-15T04:51:36;100947.89;;;18.56;34.76
66396;BME280;53207;51.378;-1.342;2023-02-15T04:54:03;100943.59;;;18.53;34.75
66396;BME280;53207;51.378;-1.342;2023-02-15T04:56:30;100941.78;;;18.57;34.67
66396;BME280;53207;51.378;-1.342;2023-02-15T04:58:57;100944.22;;;18.81;34.69
66396;BME280;53207;51.378;-1.342;2023-02-15T05:01:25;100944.66;;;18.87;34.82
66396;BME280;53207;51.378;-1.342;2023-02-15T05:03:52;100938.71;;;18.49;34.72
66396;BME280;53207;51.378;-1.342;2023-02-15T05:06:20;100936.84;;;18.71;34.73
66396;BME280;53207;51.378;-1.342;2023-02-15T05:08:47;100938.77;;;18.70;34.68
66396;BME280;53207;51.378;-1.342;2023-02-15T05:11:15;100939.84;;;18.90;34.72
66396;BME280;53207;51.378;-1.342;2023-02-15T05:13:42;100935.75;;;18.46;34.62
66396;BME280;53207;51.378;-1.342;2023-02-15T05:16:09;100937.54;;;18.92;34.65
66396;BME280;53207;51.378;-1.342;2023-02-15T05:18:37;100939.88;;;18.65;34.65
66396;BME280;53207;51.378;-1.342;2023-02-15T05:21:04;100936.78;;;18.68;34.61
66396;BME280;53207;51.378;-1.342;2023-02-15T05:23:32;100930.63;;;18.90;34.58
66396;BME280;53207;51.378;-1.342;2023-02-15T05:25:59;100926.95;;;18.48;34.46
66396;BME280;53207;51.378;-1.342;2023-02-15T05:28:27;100923.28;;;18.40;34.54
66396;BME280;53207;51.378;-1.342;2023-02-15T05:31:03;100921.02;;;18.38;34.52
66396;BME280;53207;51.378;-1.342;2023-02-15T05:33:31;100918.74;;;18.54;34.61
66396;BME280;53207;51.378;-1.342;2023-02-15T05:35:58;100918.37;;;18.38;34.46
66396;BME280;53207;51.378;-1.342;2023-02-15T05:38:25;100912.51;;;18.64;34.45
66396;BME280;53207;51.378;-1.342;2023-02-15T05:40:52;100915.15;;;18.58;34.44
66396;BME280;53207;51.378;-1.342;2023-02-15T05:43:20;100916.88;;;18.53;34.51
66396;BME280;53207;51.378;-1.342;2023-02-15T05:45:47;100916.32;;;18.72;34.56
66396;BME280;53207;51.378;-1.342;2023-02-15T05:48:14;100914.09;;;18.65;34.39
66396;BME280;53207;51.378;-1.342;2023-02-15T05:50:41;100917.23;;;18.23;34.55
66396;BME280;53207;51.378;-1.342;2023-02-15T05:53:08;100920.27;;;18.62;34.39
66396;BME280;53207;51.378;-1.342;2023-02-15T05:55:37;100914.80;;;18.56;34.43
66396;BME280;53207;51.378;-1.342;2023-02-15T05:58:04;100913.42;;;18.59;34.39
66396;BME280;53207;51.378;-1.342;2023-02-15T06:00:37;100907.70;;;18.52;34.45
66396;BME280;53207;51.378;-1.342;2023-02-15T06:03:04;100904.89;;;18.44;34.49
66396;BME280;53207;51.378;-1.342;2023-02-15T06:05:32;100901.28;;;18.70;34.46
66396;BME280;53207;51.378;-1.342;2023-02-15T06:07:59;100909.84;;;18.48;34.44
66396;BME280;53207;51.378;-1.342;2023-02-15T06:10:26;100910.96;;;18.72;34.38
66396;BME280;53207;51.378;-1.342;2023-02-15T06:12:54;100915.59;;;18.44;34.41
66396;BME280;53207;51.378;-1.342;2023-02-15T06:15:21;100919.25;;;18.19;34.41
66396;BME280;53207;51.378;-1.342;2023-02-15T06:17:48;100929.19;;;18.34;34.51
66396;BME280;53207;51.378;-1.342;2023-02-15T06:20:15;100934.76;;;18.37;34.44
66396;BME280;53207;51.378;-1.342;2023-02-15T06:22:42;100937.57;;;18.56;34.47
66396;BME280;53207;51.378;-1.342;2023-02-15T06:25:09;100937.52;;;18.34;34.45
66396;BME280;53207;51.378;-1.342;2023-02-15T06:27:36;100932.00;;;18.31;34.47
66396;BME280;53207;51.378;-1.342;2023-02-15T06:30:05;100933.55;;;18.48;34.50
66396;BME280;53207;51.378;-1.342;2023-02-15T06:32:33;100933.71;;;18.29;34.47
66396;BME280;53207;51.378;-1.342;2023-02-15T06:35:00;100932.17;;;18.53;34.40
66396;BME280;53207;51.378;-1.342;2023-02-15T06:37:28;100929.26;;;18.31;34.32
66396;BME280;53207;51.378;-1.342;2023-02-15T06:39:55;100923.20;;;18.59;34.19
66396;BME280;53207;51.378;-1.342;2023-02-15T06:42:24;100925.64;;;18.69;34.04
66396;BME280;53207;51.378;-1.342;2023-02-15T06:44:51;100921.00;;;18.83;33.87
66396;BME280;53207;51.378;-1.342;2023-02-15T06:47:18;100921.97;;;18.64;34.05
66396;BME280;53207;51.378;-1.342;2023-02-15T06:49:46;100927.58;;;18.91;34.07
66396;BME280;53207;51.378;-1.342;2023-02-15T06:52:12;100934.52;;;18.74;34.34
66396;BME280;53207;51.378;-1.342;2023-02-15T06:54:40;100936.20;;;18.86;34.37
66396;BME280;53207;51.378;-1.342;2023-02-15T06:57:07;100935.53;;;19.16;34.35
66396;BME280;53207;51.378;-1.342;2023-02-15T06:59:34;100936.11;;;19.03;34.30
66396;BME280;53207;51.378;-1.342;2023-02-15T07:02:02;100936.84;;;18.90;34.20
66396;BME280;53207;51.378;-1.342;2023-02-15T07:04:29;100935.83;;;19.00;34.12
66396;BME280;53207;51.378;-1.342;2023-02-15T07:06:56;100937.60;;;19.36;34.02
66396;BME280;53207;51.378;-1.342;2023-02-15T07:09:23;100937.09;;;19.14;33.96
66396;BME280;53207;51.378;-1.342;2023-02-15T07:11:50;100937.60;;;19.24;33.85
66396;BME280;53207;51.378;-1.342;2023-02-15T07:14:17;100940.95;;;19.32;33.76
66396;BME280;53207;51.378;-1.342;2023-02-15T07:16:44;100941.82;;;19.40;33.66
66396;BME280;53207;51.378;-1.342;2023-02-15T07:19:12;100936.15;;;19.48;33.55
66396;BME280;53207;51.378;-1.342;2023-02-15T07:21:39;100932.88;;;19.57;33.43
66396;BME280;53207;51.378;-1.342;2023-02-15T07:24:07;100938.64;;;19.37;33.39
66396;BME280;53207;51.378;-1.342;2023-02-15T07:26:34;100940.94;;;19.63;33.30
66396;BME280;53207;51.378;-1.342;2023-02-15T07:29:01;100939.37;;;19.48;33.17
66396;BME280;53207;51.378;-1.342;2023-02-15T07:31:29;100941.49;;;19.55;33.03
66396;BME280;53207;51.378;-1.342;2023-02-15T07:33:56;100942.26;;;19.74;33.04
66396;BME280;53207;51.378;-1.342;2023-02-15T07:36:24;100947.92;;;19.86;32.92
66396;BME280;53207;51.378;-1.342;2023-02-15T07:38:51;100949.15;;;19.84;32.88
66396;BME280;53207;51.378;-1.342;2023-02-15T07:41:20;100945.72;;;19.34;32.96
66396;BME280;53207;51.378;-1.342;2023-02-15T07:43:47;100946.76;;;19.59;32.94
66396;BME280;53207;51.378;-1.342;2023-02-15T07:46:15;100944.30;;;19.31;33.05
66396;BME280;53207;51.378;-1.342;2023-02-15T07:48:44;100939.75;;;19.53;33.04
66396;BME280;53207;51.378;-1.342;2023-02-15T07:51:12;100935.03;;;19.53;33.04
66396;BME280;53207;51.378;-1.342;2023-02-15T07:53:40;100934.97;;;19.73;33.00
66396;BME280;53207;51.378;-1.342;2023-02-15T07:56:11;100936.55;;;19.46;33.16
66396;BME280;53207;51.378;-1.342;2023-02-15T07:58:39;100933.98;;;19.71;33.12
66396;BME280;53207;51.378;-1.342;2023-02-15T08:01:06;100929.84;;;19.65;33.18
66396;BME280;53207;51.378;-1.342;2023-02-15T08:03:33;100927.60;;;19.37;33.29
66396;BME280;53207;51.378;-1.342;2023-02-15T08:06:00;100932.44;;;19.63;33.27
66396;BME280;53207;51.378;-1.342;2023-02-15T08:08:33;100930.91;;;19.38;33.30
66396;BME280;53207;51.378;-1.342;2023-02-15T08:11:02;100929.07;;;19.60;33.32
66396;BME280;53207;51.378;-1.342;2023-02-15T08:13:31;100928.81;;;19.41;33.31
66396;BME280;53207;51.378;-1.342;2023-02-15T08:15:58;100925.46;;;19.66;33.31
66396;BME280;53207;51.378;-1.342;2023-02-15T08:18:25;100921.23;;;19.61;33.40
66396;BME280;53207;51.378;-1.342;2023-02-15T08:20:52;100921.86;;;19.42;33.40
66396;BME280;53207;51.378;-1.342;2023-02-15T08:23:19;100926.85;;;19.41;33.45
66396;BME280;53207;51.378;-1.342;2023-02-15T08:25:46;100930.24;;;19.46;33.43
66396;BME280;53207;51.378;-1.342;2023-02-15T08:28:13;100930.56;;;19.49;33.42
66396;BME280;53207;51.378;-1.342;2023-02-15T08:30:40;100932.42;;;19.50;33.44
66396;BME280;53207;51.378;-1.342;2023-02-15T08:33:08;100927.93;;;19.74;33.44
66396;BME280;53207;51.378;-1.342;2023-02-15T08:35:34;100921.84;;;19.47;33.49
66396;BME280;53207;51.378;-1.342;2023-02-15T08:38:02;100916.74;;;19.25;33.49
66396;BME280;53207;51.378;-1.342;2023-02-15T08:40:29;100911.37;;;19.69;33.49
66396;BME280;53207;51.378;-1.342;2023-02-15T08:42:56;100906.53;;;19.44;33.53
66396;BME280;53207;51.378;-1.342;2023-02-15T08:45:23;100905.58;;;19.43;33.59
66396;BME280;53207;51.378;-1.342;2023-02-15T08:47:50;100904.40;;;19.49;33.50
66396;BME280;53207;51.378;-1.342;2023-02-15T08:50:18;100903.42;;;19.69;33.35
66396;BME280;53207;51.378;-1.342;2023-02-15T08:52:46;100900.48;;;19.67;33.47
66396;BME280;53207;51.378;-1.342;2023-02-15T08:55:12;100902.20;;;19.50;33.34
66396;BME280;53207;51.378;-1.342;2023-02-15T08:57:40;100897.52;;;19.64;33.49
66396;BME280;53207;51.378;-1.342;2023-02-15T09:00:09;100898.16;;;19.40;33.52
66396;BME280;53207;51.378;-1.342;2023-02-15T09:02:36;100896.84;;;19.40;33.60
66396;BME280;53207;51.378;-1.342;2023-02-15T09:05:02;100900.74;;;19.60;33.56
66396;BME280;53207;51.378;-1.342;2023-02-15T09:07:30;100904.96;;;19.63;33.56
66396;BME280;53207;51.378;-1.342;2023-02-15T09:09:57;100903.14;;;19.67;33.34
66396;BME280;53207;51.378;-1.342;2023-02-15T09:12:24;100908.59;;;19.67;33.34
66396;BME280;53207;51.378;-1.342;2023-02-15T09:14:51;100913.65;;;19.61;33.41
66396;BME280;53207;51.378;-1.342;2023-02-15T09:17:18;100910.96;;;19.58;33.53
66396;BME280;53207;51.378;-1.342;2023-02-15T09:19:46;100917.35;;;19.55;33.60
66396;BME280;53207;51.378;-1.342;2023-02-15T09:22:13;100923.27;;;19.51;33.74
66396;BME280;53207;51.378;-1.342;2023-02-15T09:24:41;100922.00;;;19.53;33.71
66396;BME280;53207;51.378;-1.342;2023-02-15T09:27:08;100929.85;;;19.73;33.81
66396;BME280;53207;51.378;-1.342;2023-02-15T09:29:35;100926.59;;;19.27;34.16
66396;BME280;53207;51.378;-1.342;2023-02-15T09:32:02;100929.69;;;19.32;34.23
66396;BME280;53207;51.378;-1.342;2023-02-15T09:34:29;100930.38;;;19.66;34.18
66396;BME280;53207;51.378;-1.342;2023-02-15T09:36:56;100924.68;;;19.46;34.53
66396;BME280;53207;51.378;-1.342;2023-02-15T09:39:24;100922.22;;;19.49;34.62
66396;BME280;53207;51.378;-1.342;2023-02-15T09:42:27;100913.93;;;19.22;34.87
66396;BME280;53207;51.378;-1.342;2023-02-15T09:45:05;100917.58;;;19.45;34.97
66396;BME280;53207;51.378;-1.342;2023-02-15T09:47:56;100916.28;;;19.32;34.88
66396;BME280;53207;51.378;-1.342;2023-02-15T09:50:34;100922.57;;;19.63;35.05
66396;BME280;53207;51.378;-1.342;2023-02-15T09:53:19;100918.75;;;19.42;35.12
66396;BME280;53207;51.378;-1.342;2023-02-15T09:55:57;100925.78;;;19.60;35.26
66396;BME280;53207;51.378;-1.342;2023-02-15T09:58:35;100938.61;;;19.52;35.37
66396;BME280;53207;51.378;-1.342;2023-02-15T10:01:10;100930.34;;;19.57;35.22
66396;BME280;53207;51.378;-1.342;2023-02-15T10:03:47;100928.70;;;19.63;35.12
66396;BME280;53207;51.378;-1.342;2023-02-15T10:06:32;100930.01;;;19.62;35.12
66396;BME280;53207;51.378;-1.342;2023-02-15T10:09:07;100936.18;;;19.57;35.22
66396;BME280;53207;51.378;-1.342;2023-02-15T10:11:48;100929.98;;;19.58;35.18
66396;BME280;53207;51.378;-1.342;2023-02-15T10:14:32;100930.78;;;19.30;35.35
66396;BME280;53207;51.378;-1.342;2023-02-15T10:17:14;100920.18;;;19.53;35.27
66396;BME280;53207;51.378;-1.342;2023-02-15T10:19:52;100915.71;;;19.53;35.29
66396;BME280;53207;51.378;-1.342;2023-02-15T10:22:32;100913.94;;;19.36;35.13
66396;BME280;53207;51.378;-1.342;2023-02-15T10:25:23;100909.34;;;19.49;35.20
66396;BME280;53207;51.378;-1.342;2023-02-15T10:27:53;100913.42;;;19.23;35.23
66396;BME280;53207;51.378;-1.342;2023-02-15T10:30:25;100918.48;;;19.24;35.18
66396;BME280;53207;51.378;-1.342;2023-02-15T10:32:59;100924.22;;;19.46;35.16
66396;BME280;53207;51.378;-1.342;2023-02-15T10:35:35;100924.75;;;19.48;35.05
66396;BME280;53207;51.378;-1.342;2023-02-15T10:38:15;100918.57;;;19.24;35.08
66396;BME280;53207;51.378;-1.342;2023-02-15T10:40:55;100921.73;;;19.44;34.98
66396;BME280;53207;51.378;-1.342;2023-02-15T10:43:40;100930.51;;;19.49;34.95
66396;BME280;53207;51.378;-1.342;2023-02-15T10:46:22;100932.98;;;19.45;34.94
66396;BME280;53207;51.378;-1.342;2023-02-15T10:49:13;100934.60;;;19.47;34.90
66396;BME280;53207;51.378;-1.342;2023-02-15T10:51:56;100938.54;;;19.42;34.96
66396;BME280;53207;51.378;-1.342;2023-02-15T10:54:36;100936.16;;;18.98;34.90
66396;BME280;53207;51.378;-1.342;2023-02-15T10:57:13;100930.68;;;19.46;34.93
66396;BME280;53207;51.378;-1.342;2023-02-15T10:59:56;100916.15;;;19.34;35.01
66396;BME280;53207;51.378;-1.342;2023-02-15T11:02:40;100913.79;;;19.59;35.38
66396;BME280;53207;51.378;-1.342;2023-02-15T11:05:26;100915.71;;;19.50;35.23
66396;BME280;53207;51.378;-1.342;2023-02-15T11:07:58;100920.10;;;19.31;35.03
66396;BME280;53207;51.378;-1.342;2023-02-15T11:10:32;100919.45;;;19.57;34.94
66396;BME280;53207;51.378;-1.342;2023-02-15T11:13:05;100920.78;;;19.59;34.97
66396;BME280;53207;51.378;-1.342;2023-02-15T11:15:38;100919.44;;;19.55;35.01
66396;BME280;53207;51.378;-1.342;2023-02-15T11:18:13;100911.08;;;19.50;35.09
66396;BME280;53207;51.378;-1.342;2023-02-15T11:20:55;100906.16;;;19.50;35.08
66396;BME280;53207;51.378;-1.342;2023-02-15T11:23:25;100909.06;;;19.32;35.08
66396;BME280;53207;51.378;-1.342;2023-02-15T11:25:57;100911.79;;;19.19;35.23
66396;BME280;53207;51.378;-1.342;2023-02-15T11:28:30;100910.12;;;19.48;35.12
66396;BME280;53207;51.378;-1.342;2023-02-15T11:31:02;100912.04;;;19.47;35.13
66396;BME280;53207;51.378;-1.342;2023-02-15T11:33:41;100909.30;;;19.49;35.11
66396;BME280;53207;51.378;-1.342;2023-02-15T11:36:15;100907.72;;;19.51;34.97
66396;BME280;53207;51.378;-1.342;2023-02-15T11:38:45;100904.99;;;19.46;34.97
66396;BME280;53207;51.378;-1.342;2023-02-15T11:41:17;100903.38;;;19.35;35.11
66396;BME280;53207;51.378;-1.342;2023-02-15T11:43:50;100905.33;;;19.42;34.96
66396;BME280;53207;51.378;-1.342;2023-02-15T11:46:20;100903.65;;;19.15;35.01
66396;BME280;53207;51.378;-1.342;2023-02-15T11:48:47;100900.32;;;19.11;35.01
66396;BME280;53207;51.378;-1.342;2023-02-15T11:51:16;100896.50;;;19.02;35.09
66396;BME280;53207;51.378;-1.342;2023-02-15T11:53:45;100894.11;;;19.34;34.93
66396;BME280;53207;51.378;-1.342;2023-02-15T11:56:14;100898.13;;;19.33;34.92
66396;BME280;53207;51.378;-1.342;2023-02-15T11:58:45;100889.24;;;19.04;34.97
66396;BME280;53207;51.378;-1.342;2023-02-15T12:01:18;100888.40;;;19.23;34.96
66396;BME280;53207;51.378;-1.342;2023-02-15T12:03:48;100882.40;;;19.24;34.94
66396;BME280;53207;51.378;-1.342;2023-02-15T12:06:23;100879.27;;;19.32;34.82
66396;BME280;53207;51.378;-1.342;2023-02-15T12:08:57;100872.74;;;18.99;34.91
66396;BME280;53207;51.378;-1.342;2023-02-15T12:11:33;100874.96;;;18.95;34.93
66396;BME280;53207;51.378;-1.342;2023-02-15T12:14:03;100872.97;;;19.34;34.70
66396;BME280;53207;51.378;-1.342;2023-02-15T12:16:39;100866.94;;;19.18;34.89
66396;BME280;53207;51.378;-1.342;2023-02-15T12:19:24;100872.83;;;18.97;34.88
66396;BME280;53207;51.378;-1.342;2023-02-15T12:21:54;100868.79;;;19.24;34.78
66396;BME280;53207;51.378;-1.342;2023-02-15T12:24:25;100871.02;;;19.15;34.89
66396;BME280;53207;51.378;-1.342;2023-02-15T12:26:58;100874.97;;;19.38;34.92
66396;BME280;53207;51.378;-1.342;2023-02-15T12:29:28;100875.13;;;19.02;35.01
66396;BME280;53207;51.378;-1.342;2023-02-15T12:31:57;100876.25;;;19.09;34.95
66396;BME280;53207;51.378;-1.342;2023-02-15T12:34:28;100872.35;;;19.41;34.86
66396;BME280;53207;51.378;-1.342;2023-02-15T12:36:59;100862.11;;;18.99;35.04
66396;BME280;53207;51.378;-1.342;2023-02-15T12:39:29;100865.91;;;19.10;34.88
66396;BME280;53207;51.378;-1.342;2023-02-15T12:42:00;100866.26;;;19.00;35.01
66396;BME280;53207;51.378;-1.342;2023-02-15T12:44:29;100861.07;;;18.90;35.12
66396;BME280;53207;51.378;-1.342;2023-02-15T12:46:59;100861.50;;;18.91;35.12
66396;BME280;53207;51.378;-1.342;2023-02-15T12:49:27;100875.44;;;18.94;35.08
66396;BME280;53207;51.378;-1.342;2023-02-15T12:51:56;100874.07;;;18.92;35.10
66396;BME280;53207;51.378;-1.342;2023-02-15T12:54:30;100874.51;;;19.18;35.10
66396;BME280;53207;51.378;-1.342;2023-02-15T12:56:58;100868.13;;;19.26;34.94